BCS706 LFBO-EBBR
Flight info
| Callsign | BCS706 |
|---|---|
| Flight time | N/A |
| Altitude | 34000 |
| Route | FISTO DCT PERIG DCT ADABI DCT BOKNO UN858 VANAD UN874 BAMES UT191 PODEM UN873 BAZOS DCT BELDI DCT VEKIN Z173 ARVOL |
| Aircraft | A306/H-SDE3FGHIRWY/LB1 |
Departure
| Time | 2026-05-01 12:04 |
|---|---|
| Airport | Toulouse-Blagnac Airport (LFBO) |
Arrival
| Time | N/A |
|---|---|
| Airport | Brussels Airport (EBBR) |
| Time | Latitude | Longitude | Altitude | Speed | Heading |
|---|---|---|---|---|---|
| 2026-05-01 11:32 | 43.62532 | 1.37440 | 500 ft | 0 kts | 143° |
| 2026-05-01 11:35 | 43.62532 | 1.37439 | 500 ft | 0 kts | 143° |
| 2026-05-01 11:55 | 43.62508 | 1.37464 | 500 ft | 6 kts | 143° |
| 2026-05-01 11:55 | 43.62465 | 1.37470 | 500 ft | 8 kts | 208° |
| 2026-05-01 11:56 | 43.62466 | 1.37396 | 500 ft | 10 kts | 317° |
| 2026-05-01 11:56 | 43.62510 | 1.37350 | 500 ft | 13 kts | 322° |
| 2026-05-01 11:56 | 43.62584 | 1.37272 | 500 ft | 14 kts | 323° |
| 2026-05-01 11:56 | 43.62667 | 1.37187 | 500 ft | 16 kts | 324° |
| 2026-05-01 11:57 | 43.62757 | 1.37094 | 500 ft | 17 kts | 322° |
| 2026-05-01 11:57 | 43.62855 | 1.36989 | 500 ft | 18 kts | 322° |
| 2026-05-01 11:57 | 43.62961 | 1.36878 | 500 ft | 20 kts | 324° |
| 2026-05-01 11:57 | 43.63076 | 1.36762 | 500 ft | 21 kts | 323° |
| 2026-05-01 11:58 | 43.63194 | 1.36640 | 500 ft | 21 kts | 324° |
| 2026-05-01 11:58 | 43.63306 | 1.36522 | 500 ft | 20 kts | 322° |
| 2026-05-01 11:58 | 43.63518 | 1.36303 | 500 ft | 18 kts | 322° |
| 2026-05-01 11:59 | 43.63616 | 1.36199 | 500 ft | 17 kts | 323° |
| 2026-05-01 11:59 | 43.63711 | 1.36101 | 500 ft | 17 kts | 323° |
| 2026-05-01 11:59 | 43.63804 | 1.36005 | 500 ft | 18 kts | 323° |
| 2026-05-01 12:00 | 43.64030 | 1.35769 | 500 ft | 20 kts | 323° |
| 2026-05-01 12:00 | 43.64139 | 1.35656 | 500 ft | 19 kts | 322° |
| 2026-05-01 12:00 | 43.64343 | 1.35445 | 500 ft | 18 kts | 323° |
| 2026-05-01 12:01 | 43.64435 | 1.35341 | 500 ft | 17 kts | 309° |
| 2026-05-01 12:01 | 43.64478 | 1.35198 | 500 ft | 16 kts | 289° |
| 2026-05-01 12:01 | 43.64514 | 1.35060 | 500 ft | 15 kts | 289° |
| 2026-05-01 12:01 | 43.64546 | 1.34929 | 500 ft | 11 kts | 284° |
| 2026-05-01 12:02 | 43.64532 | 1.34850 | 500 ft | 6 kts | 236° |
| 2026-05-01 12:02 | 43.64515 | 1.34820 | 500 ft | 3 kts | 233° |
| 2026-05-01 12:02 | 43.64500 | 1.34792 | 500 ft | 6 kts | 233° |
| 2026-05-01 12:02 | 43.64464 | 1.34726 | 500 ft | 11 kts | 233° |
| 2026-05-01 12:03 | 43.64418 | 1.34643 | 500 ft | 9 kts | 232° |
| 2026-05-01 12:03 | 43.64379 | 1.34630 | 500 ft | 3 kts | 153° |
| 2026-05-01 12:03 | 43.64368 | 1.34642 | 500 ft | 0 kts | 143° |
| 2026-05-01 12:03 | 43.64362 | 1.34648 | 500 ft | 8 kts | 143° |
| 2026-05-01 12:04 | 43.64113 | 1.34904 | 500 ft | 81 kts | 142° |
| 2026-05-01 12:04 | 43.63490 | 1.35555 | 501 ft | 142 kts | 143° |
| 2026-05-01 12:04 | 43.62604 | 1.36462 | 890 ft | 167 kts | 142° |
| 2026-05-01 12:04 | 43.61607 | 1.37491 | 1428 ft | 193 kts | 142° |
| 2026-05-01 12:05 | 43.60346 | 1.38095 | 1683 ft | 198 kts | 175° |
| 2026-05-01 12:05 | 43.58206 | 1.35194 | 2529 ft | 265 kts | 259° |
| 2026-05-01 12:05 | 43.58512 | 1.32665 | 3539 ft | 276 kts | 296° |
| 2026-05-01 12:06 | 43.59785 | 1.30750 | 4565 ft | 278 kts | 332° |
| 2026-05-01 12:06 | 43.61610 | 1.30140 | 5765 ft | 268 kts | 5° |
| 2026-05-01 12:06 | 43.63460 | 1.30476 | 6839 ft | 270 kts | 9° |
| 2026-05-01 12:06 | 43.65367 | 1.30712 | 7774 ft | 280 kts | 3° |
| 2026-05-01 12:07 | 43.67349 | 1.30702 | 8725 ft | 288 kts | 359° |
| 2026-05-01 12:07 | 43.69378 | 1.30625 | 9663 ft | 297 kts | 358° |
| 2026-05-01 12:07 | 43.71475 | 1.30503 | 10462 ft | 308 kts | 356° |
| 2026-05-01 12:07 | 43.73692 | 1.30332 | 10866 ft | 330 kts | 356° |
| 2026-05-01 12:08 | 43.76054 | 1.30120 | 11218 ft | 350 kts | 355° |
| 2026-05-01 12:08 | 43.78560 | 1.29872 | 11534 ft | 370 kts | 355° |
| 2026-05-01 12:08 | 43.81193 | 1.29601 | 11835 ft | 387 kts | 355° |
| 2026-05-01 12:08 | 43.83917 | 1.29317 | 12373 ft | 395 kts | 355° |
| 2026-05-01 12:09 | 43.86674 | 1.29030 | 13020 ft | 400 kts | 354° |
| 2026-05-01 12:09 | 43.89472 | 1.28738 | 13649 ft | 406 kts | 354° |
| 2026-05-01 12:09 | 43.92300 | 1.28441 | 14325 ft | 408 kts | 354° |
| 2026-05-01 12:09 | 43.95155 | 1.28141 | 14902 ft | 413 kts | 354° |
| 2026-05-01 12:10 | 43.98035 | 1.27838 | 15497 ft | 417 kts | 354° |
| 2026-05-01 12:10 | 44.03860 | 1.27223 | 16797 ft | 422 kts | 354° |
| 2026-05-01 12:10 | 44.06793 | 1.26910 | 17449 ft | 424 kts | 354° |
| 2026-05-01 12:11 | 44.12725 | 1.26282 | 18595 ft | 431 kts | 354° |
| 2026-05-01 12:11 | 44.15723 | 1.25966 | 19078 ft | 434 kts | 354° |
| 2026-05-01 12:11 | 44.18743 | 1.25647 | 19566 ft | 437 kts | 354° |
| 2026-05-01 12:12 | 44.21792 | 1.25323 | 20030 ft | 440 kts | 354° |
| 2026-05-01 12:12 | 44.24851 | 1.24997 | 20496 ft | 443 kts | 354° |
| 2026-05-01 12:12 | 44.27933 | 1.24669 | 20948 ft | 446 kts | 354° |
| 2026-05-01 12:12 | 44.31032 | 1.24339 | 21381 ft | 449 kts | 354° |
| 2026-05-01 12:13 | 44.34119 | 1.24009 | 21812 ft | 451 kts | 354° |
| 2026-05-01 12:13 | 44.37262 | 1.23673 | 22232 ft | 454 kts | 354° |
| 2026-05-01 12:13 | 44.40434 | 1.23334 | 22642 ft | 457 kts | 354° |
| 2026-05-01 12:13 | 44.43612 | 1.22988 | 23088 ft | 459 kts | 353° |
| 2026-05-01 12:14 | 44.46775 | 1.22366 | 23499 ft | 460 kts | 347° |
| 2026-05-01 12:14 | 44.49903 | 1.21362 | 23857 ft | 462 kts | 344° |
| 2026-05-01 12:14 | 44.53013 | 1.20210 | 24167 ft | 464 kts | 342° |
| 2026-05-01 12:14 | 44.56124 | 1.18979 | 24472 ft | 466 kts | 342° |
| 2026-05-01 12:15 | 44.59250 | 1.17716 | 24795 ft | 468 kts | 342° |
| 2026-05-01 12:15 | 44.62382 | 1.16451 | 25091 ft | 470 kts | 342° |
| 2026-05-01 12:15 | 44.65530 | 1.15190 | 25416 ft | 471 kts | 342° |
| 2026-05-01 12:15 | 44.68693 | 1.13934 | 25701 ft | 473 kts | 342° |
| 2026-05-01 12:16 | 44.71866 | 1.12683 | 25953 ft | 475 kts | 342° |
| 2026-05-01 12:16 | 44.75064 | 1.11428 | 26219 ft | 477 kts | 342° |
| 2026-05-01 12:16 | 44.78268 | 1.10172 | 26482 ft | 479 kts | 342° |
| 2026-05-01 12:16 | 44.81480 | 1.08912 | 26733 ft | 480 kts | 342° |
| 2026-05-01 12:17 | 44.84705 | 1.07644 | 26970 ft | 482 kts | 342° |
| 2026-05-01 12:17 | 44.87945 | 1.06368 | 27242 ft | 483 kts | 342° |
| 2026-05-01 12:17 | 44.91178 | 1.05093 | 27605 ft | 482 kts | 342° |
| 2026-05-01 12:17 | 44.94407 | 1.03818 | 27979 ft | 481 kts | 342° |
| 2026-05-01 12:18 | 44.97586 | 1.02561 | 28341 ft | 480 kts | 342° |
| 2026-05-01 12:18 | 45.00798 | 1.01289 | 28720 ft | 479 kts | 342° |
| 2026-05-01 12:18 | 45.04003 | 1.00019 | 29124 ft | 477 kts | 342° |
| 2026-05-01 12:18 | 45.07199 | 0.98751 | 29502 ft | 477 kts | 342° |
| 2026-05-01 12:19 | 45.10393 | 0.97482 | 29879 ft | 476 kts | 342° |
| 2026-05-01 12:19 | 45.13597 | 0.96303 | 30261 ft | 476 kts | 344° |
| 2026-05-01 12:19 | 45.16839 | 0.95275 | 30589 ft | 476 kts | 346° |
| 2026-05-01 12:19 | 45.20077 | 0.94331 | 30889 ft | 475 kts | 346° |
| 2026-05-01 12:20 | 45.23320 | 0.93416 | 31276 ft | 473 kts | 346° |
| 2026-05-01 12:20 | 45.26547 | 0.92500 | 31576 ft | 473 kts | 346° |
| 2026-05-01 12:20 | 45.29771 | 0.91572 | 31853 ft | 473 kts | 346° |
| 2026-05-01 12:20 | 45.32959 | 0.90640 | 32160 ft | 473 kts | 346° |
| 2026-05-01 12:21 | 45.36180 | 0.89688 | 32461 ft | 472 kts | 346° |
| 2026-05-01 12:21 | 45.39400 | 0.88729 | 32777 ft | 472 kts | 346° |
| 2026-05-01 12:21 | 45.42614 | 0.87768 | 33155 ft | 470 kts | 346° |
| 2026-05-01 12:21 | 45.45818 | 0.86807 | 33470 ft | 470 kts | 346° |
| 2026-05-01 12:22 | 45.49014 | 0.85848 | 33769 ft | 470 kts | 346° |
| 2026-05-01 12:22 | 45.52213 | 0.84886 | 34059 ft | 470 kts | 346° |
| 2026-05-01 12:22 | 45.55415 | 0.83923 | 34209 ft | 470 kts | 346° |
| 2026-05-01 12:22 | 45.58615 | 0.82961 | 34231 ft | 470 kts | 346° |
| 2026-05-01 12:23 | 45.65000 | 0.81030 | 34218 ft | 468 kts | 346° |
| 2026-05-01 12:23 | 45.71370 | 0.79105 | 34221 ft | 468 kts | 346° |
| 2026-05-01 12:24 | 45.77740 | 0.77182 | 34222 ft | 468 kts | 346° |
| 2026-05-01 12:24 | 45.84116 | 0.75251 | 34222 ft | 467 kts | 346° |
| 2026-05-01 12:25 | 45.93618 | 0.72360 | 34219 ft | 467 kts | 346° |
| 2026-05-01 12:26 | 45.99976 | 0.70420 | 34221 ft | 467 kts | 345° |
| 2026-05-01 12:26 | 46.09480 | 0.67512 | 34219 ft | 465 kts | 345° |
| 2026-05-01 12:27 | 46.18972 | 0.64598 | 34225 ft | 464 kts | 345° |
| 2026-05-01 12:28 | 46.28376 | 0.61716 | 34211 ft | 461 kts | 345° |
| 2026-05-01 12:29 | 46.37798 | 0.58789 | 34219 ft | 461 kts | 345° |
| 2026-05-01 12:29 | 46.47197 | 0.55869 | 34209 ft | 459 kts | 345° |
| 2026-05-01 12:30 | 46.56697 | 0.53880 | 34209 ft | 465 kts | 359° |
| 2026-05-01 12:31 | 46.63114 | 0.55305 | 34209 ft | 466 kts | 8° |
| 2026-05-01 12:31 | 46.69401 | 0.57337 | 34210 ft | 466 kts | 10° |
| 2026-05-01 12:32 | 46.75718 | 0.59491 | 34209 ft | 466 kts | 10° |
| 2026-05-01 12:32 | 46.85195 | 0.62675 | 34206 ft | 466 kts | 9° |
| 2026-05-01 12:33 | 46.91516 | 0.64775 | 34202 ft | 466 kts | 9° |
| 2026-05-01 12:33 | 46.97842 | 0.66877 | 34216 ft | 466 kts | 9° |
| 2026-05-01 12:34 | 47.04178 | 0.68880 | 34202 ft | 462 kts | 5° |
| 2026-05-01 12:34 | 47.10558 | 0.69795 | 34205 ft | 460 kts | 1° |
| 2026-05-01 12:35 | 47.16941 | 0.70482 | 34208 ft | 460 kts | 0° |
| 2026-05-01 12:35 | 47.23326 | 0.71124 | 34210 ft | 459 kts | 1° |
| 2026-05-01 12:36 | 47.29650 | 0.71771 | 34209 ft | 458 kts | 1° |
| 2026-05-01 12:36 | 47.36014 | 0.72435 | 34210 ft | 458 kts | 1° |
| 2026-05-01 12:37 | 47.42375 | 0.73103 | 34219 ft | 458 kts | 1° |
| 2026-05-01 12:37 | 47.48742 | 0.73965 | 34210 ft | 461 kts | 7° |
| 2026-05-01 12:38 | 47.54959 | 0.76477 | 34201 ft | 464 kts | 14° |
| 2026-05-01 12:38 | 47.61063 | 0.79430 | 34212 ft | 465 kts | 16° |
| 2026-05-01 12:39 | 47.67198 | 0.82496 | 34212 ft | 466 kts | 17° |
| 2026-05-01 12:39 | 47.73359 | 0.85567 | 34199 ft | 468 kts | 17° |
| 2026-05-01 12:40 | 47.79551 | 0.88633 | 34201 ft | 470 kts | 17° |
| 2026-05-01 12:40 | 47.85782 | 0.91735 | 34207 ft | 473 kts | 19° |
| 2026-05-01 12:41 | 47.92028 | 0.94893 | 34204 ft | 474 kts | 19° |
| 2026-05-01 12:41 | 47.97225 | 0.97530 | 34205 ft | 474 kts | 19° |
| 2026-05-01 12:42 | 48.03478 | 1.00703 | 34207 ft | 474 kts | 19° |
| 2026-05-01 12:42 | 48.09716 | 1.03885 | 34208 ft | 473 kts | 19° |
| 2026-05-01 12:43 | 48.15972 | 1.07071 | 34211 ft | 473 kts | 19° |
| 2026-05-01 12:43 | 48.22169 | 1.10233 | 34203 ft | 473 kts | 19° |
| 2026-05-01 12:44 | 48.28405 | 1.13414 | 34202 ft | 473 kts | 20° |
| 2026-05-01 12:45 | 48.40870 | 1.19781 | 34205 ft | 473 kts | 20° |
| 2026-05-01 12:45 | 48.47110 | 1.22982 | 34201 ft | 474 kts | 21° |
| 2026-05-01 12:46 | 48.53363 | 1.26200 | 34201 ft | 475 kts | 21° |
| 2026-05-01 12:46 | 48.59627 | 1.29392 | 34200 ft | 475 kts | 20° |
| 2026-05-01 12:47 | 48.65912 | 1.32549 | 34195 ft | 477 kts | 22° |
| 2026-05-01 12:47 | 48.72234 | 1.35735 | 34207 ft | 480 kts | 22° |
| 2026-05-01 12:48 | 48.78540 | 1.38928 | 34203 ft | 480 kts | 22° |
| 2026-05-01 12:48 | 48.84879 | 1.42148 | 34208 ft | 480 kts | 22° |
| 2026-05-01 12:49 | 48.91223 | 1.45378 | 34212 ft | 480 kts | 22° |
| 2026-05-01 12:49 | 48.97619 | 1.48405 | 34214 ft | 484 kts | 15° |
| 2026-05-01 12:50 | 49.04216 | 1.50205 | 34204 ft | 485 kts | 12° |
| 2026-05-01 12:50 | 49.10899 | 1.51779 | 34207 ft | 486 kts | 12° |
| 2026-05-01 12:51 | 49.17592 | 1.53312 | 34204 ft | 487 kts | 12° |
| 2026-05-01 12:51 | 49.24144 | 1.55596 | 34201 ft | 480 kts | 25° |
| 2026-05-01 12:52 | 49.27128 | 1.57807 | 34205 ft | 473 kts | 36° |
| 2026-05-01 12:52 | 49.32215 | 1.64008 | 34210 ft | 466 kts | 47° |
| 2026-05-01 12:52 | 49.34587 | 1.67392 | 34209 ft | 465 kts | 48° |
| 2026-05-01 12:53 | 49.41561 | 1.77752 | 34209 ft | 465 kts | 49° |
| 2026-05-01 12:54 | 49.46215 | 1.84660 | 34211 ft | 465 kts | 49° |
| 2026-05-01 12:54 | 49.53217 | 1.95002 | 34210 ft | 466 kts | 48° |
| 2026-05-01 12:55 | 49.60256 | 2.05427 | 34213 ft | 468 kts | 48° |
| 2026-05-01 12:56 | 49.64937 | 2.12390 | 34211 ft | 468 kts | 48° |
| 2026-05-01 12:56 | 49.69589 | 2.19331 | 34213 ft | 468 kts | 48° |
| 2026-05-01 12:57 | 49.74261 | 2.26318 | 34186 ft | 468 kts | 48° |
| 2026-05-01 12:57 | 49.81297 | 2.36871 | 34212 ft | 470 kts | 47° |
| 2026-05-01 12:58 | 49.85989 | 2.43944 | 34209 ft | 470 kts | 47° |
| 2026-05-01 12:59 | 49.93013 | 2.54565 | 33939 ft | 470 kts | 48° |
| 2026-05-01 12:59 | 49.95352 | 2.58113 | 33661 ft | 471 kts | 47° |
| 2026-05-01 12:59 | 50.00047 | 2.65251 | 33127 ft | 473 kts | 47° |
| 2026-05-01 13:00 | 50.04737 | 2.72399 | 32113 ft | 470 kts | 47° |
| 2026-05-01 13:00 | 50.07071 | 2.75964 | 31180 ft | 470 kts | 47° |
| 2026-05-01 13:01 | 50.11721 | 2.83082 | 29211 ft | 468 kts | 47° |
| 2026-05-01 13:01 | 50.14032 | 2.86627 | 28286 ft | 464 kts | 47° |
| 2026-05-01 13:01 | 50.18606 | 2.93657 | 26560 ft | 456 kts | 47° |
| 2026-05-01 13:02 | 50.20837 | 2.97091 | 25962 ft | 446 kts | 47° |
| 2026-05-01 13:07 | 50.64891 | 3.61003 | 12871 ft | 380 kts | 37° |
| 2026-05-01 13:07 | 50.67050 | 3.63376 | 12252 ft | 376 kts | 37° |
| 2026-05-01 13:07 | 50.69185 | 3.65725 | 11641 ft | 373 kts | 37° |
| 2026-05-01 13:08 | 50.71297 | 3.68057 | 11065 ft | 369 kts | 37° |
| 2026-05-01 13:08 | 50.73351 | 3.70326 | 10896 ft | 350 kts | 37° |
| 2026-05-01 13:08 | 50.75292 | 3.72474 | 10809 ft | 332 kts | 37° |
| 2026-05-01 13:08 | 50.77131 | 3.74515 | 10715 ft | 315 kts | 37° |
| 2026-05-01 13:09 | 50.78883 | 3.76467 | 10590 ft | 302 kts | 37° |
| 2026-05-01 13:09 | 50.80567 | 3.78341 | 10460 ft | 292 kts | 37° |
| 2026-05-01 13:09 | 50.82204 | 3.80165 | 10324 ft | 283 kts | 38° |
| 2026-05-01 13:09 | 50.83786 | 3.81926 | 10128 ft | 281 kts | 38° |
| 2026-05-01 13:10 | 50.85393 | 3.83727 | 9640 ft | 285 kts | 38° |
| 2026-05-01 13:10 | 50.87005 | 3.85599 | 9303 ft | 291 kts | 42° |
| 2026-05-01 13:10 | 50.88368 | 3.88019 | 8873 ft | 295 kts | 58° |
| 2026-05-01 13:10 | 50.89462 | 3.90751 | 8412 ft | 294 kts | 61° |
| 2026-05-01 13:11 | 50.90520 | 3.93524 | 7950 ft | 293 kts | 61° |
| 2026-05-01 13:11 | 50.91457 | 3.96373 | 7546 ft | 289 kts | 73° |
| 2026-05-01 13:11 | 50.91666 | 3.99475 | 7100 ft | 283 kts | 101° |
| 2026-05-01 13:11 | 50.90942 | 4.02301 | 6649 ft | 277 kts | 127° |
| 2026-05-01 13:12 | 50.89711 | 4.04631 | 6217 ft | 274 kts | 134° |
| 2026-05-01 13:12 | 50.88396 | 4.06776 | 5942 ft | 265 kts | 141° |
| 2026-05-01 13:12 | 50.86890 | 4.08282 | 5772 ft | 249 kts | 155° |
| 2026-05-01 13:12 | 50.85363 | 4.09400 | 5640 ft | 234 kts | 158° |
| 2026-05-01 13:13 | 50.83940 | 4.10398 | 5367 ft | 220 kts | 158° |
| 2026-05-01 13:13 | 50.82556 | 4.11383 | 4844 ft | 217 kts | 156° |
| 2026-05-01 13:13 | 50.81191 | 4.12385 | 4271 ft | 215 kts | 158° |
| 2026-05-01 13:13 | 50.79813 | 4.13266 | 3751 ft | 212 kts | 159° |
| 2026-05-01 13:14 | 50.78423 | 4.14054 | 3226 ft | 211 kts | 168° |
| 2026-05-01 13:14 | 50.76983 | 4.13812 | 3016 ft | 213 kts | 203° |
| 2026-05-01 13:14 | 50.75882 | 4.12259 | 2992 ft | 216 kts | 237° |
| 2026-05-01 13:14 | 50.75527 | 4.09964 | 2984 ft | 221 kts | 271° |
| 2026-05-01 13:15 | 50.76047 | 4.07693 | 2994 ft | 224 kts | 305° |
| 2026-05-01 13:15 | 50.77278 | 4.06207 | 2986 ft | 227 kts | 338° |
| 2026-05-01 13:15 | 50.78835 | 4.05979 | 2997 ft | 227 kts | 11° |
| 2026-05-01 13:15 | 50.80308 | 4.06851 | 2993 ft | 226 kts | 28° |
| 2026-05-01 13:16 | 50.81717 | 4.08010 | 3011 ft | 243 kts | 30° |
| 2026-05-01 13:16 | 50.83160 | 4.09316 | 2902 ft | 233 kts | 40° |
| 2026-05-01 13:16 | 50.84101 | 4.11295 | 2263 ft | 223 kts | 71° |
| 2026-05-01 13:17 | 50.84030 | 4.18207 | 1690 ft | 190 kts | 96° |
| 2026-05-01 13:17 | 50.84069 | 4.20159 | 1500 ft | 170 kts | 84° |
| 2026-05-01 13:18 | 50.84763 | 4.23410 | 1413 ft | 156 kts | 72° |
| 2026-05-01 13:18 | 50.85171 | 4.25075 | 1441 ft | 163 kts | 72° |
| 2026-05-01 13:18 | 50.85591 | 4.26739 | 1329 ft | 150 kts | 70° |
| 2026-05-01 13:18 | 50.85963 | 4.28155 | 1264 ft | 144 kts | 73° |
| 2026-05-01 13:19 | 50.86286 | 4.29642 | 1315 ft | 140 kts | 77° |
| 2026-05-01 13:19 | 50.86486 | 4.31145 | 1400 ft | 142 kts | 85° |
| 2026-05-01 13:19 | 50.86878 | 4.34461 | 1554 ft | 165 kts | 82° |
| 2026-05-01 13:20 | 50.87201 | 4.36313 | 1418 ft | 175 kts | 71° |
| 2026-05-01 13:20 | 50.87690 | 4.37940 | 1170 ft | 154 kts | 67° |
| 2026-05-01 13:20 | 50.88132 | 4.39381 | 943 ft | 140 kts | 68° |